createdAt,value
2019-04-06T00:01:13.248Z,97514.38
2019-04-06T00:03:39.960Z,97505.23
2019-04-06T00:06:06.476Z,97518.64
2019-04-06T00:08:33.028Z,97513.83
2019-04-06T00:10:59.517Z,97514.64
2019-04-06T00:13:26.031Z,97509.81
2019-04-06T00:15:52.998Z,97517.59
2019-04-06T00:18:19.468Z,97519.31
2019-04-06T00:20:45.959Z,97525.34
2019-04-06T00:23:12.676Z,97525.26
2019-04-06T00:25:44.592Z,97525.71
2019-04-06T00:28:09.178Z,97529.13
2019-04-06T00:30:45.430Z,97528.72
2019-04-06T00:33:14.278Z,97529.67
2019-04-06T00:35:41.028Z,97528.86
2019-04-06T00:38:07.938Z,97526.30
2019-04-06T00:40:34.457Z,97537.06
2019-04-06T00:43:01.063Z,97537.91
2019-04-06T00:45:27.595Z,97530.08
2019-04-06T00:47:56.099Z,97538.73
2019-04-06T00:50:22.796Z,97539.53
2019-04-06T00:52:49.390Z,97539.53
2019-04-06T00:55:27.466Z,97536.42
2019-04-06T00:57:53.979Z,97539.03
2019-04-06T01:00:20.857Z,97535.06
2019-04-06T01:02:47.404Z,97534.21
2019-04-06T01:05:14.066Z,97539.89
2019-04-06T01:07:40.620Z,97540.69
2019-04-06T01:10:07.428Z,97529.78
2019-04-06T01:12:33.966Z,97525.46
2019-04-06T01:15:00.738Z,97528.03
2019-04-06T01:17:27.495Z,97519.33
2019-04-06T01:19:54.087Z,97517.13
2019-04-06T01:22:20.953Z,97525.77
2019-04-06T01:24:47.441Z,97531.00
2019-04-06T01:27:14.994Z,97524.06
2019-04-06T01:29:41.646Z,97522.30
2019-04-06T01:32:08.299Z,97513.70
2019-04-06T01:34:35.037Z,97512.39
2019-04-06T01:37:01.888Z,97510.78
2019-04-06T01:39:28.368Z,97513.84
2019-04-06T01:41:54.957Z,97516.06
2019-04-06T01:44:21.442Z,97513.89
2019-04-06T01:46:47.916Z,97504.31
2019-04-06T01:49:14.763Z,97513.05
2019-04-06T01:51:41.256Z,97510.98
2019-04-06T01:54:07.814Z,97517.16
2019-04-06T01:56:34.278Z,97513.83
2019-04-06T01:59:00.889Z,97515.94
2019-04-06T02:01:31.621Z,97521.36
2019-04-06T02:03:58.406Z,97524.83
2019-04-06T02:06:24.961Z,97522.70
2019-04-06T02:08:51.490Z,97522.75
2019-04-06T02:11:18.000Z,97523.25
2019-04-06T02:13:44.510Z,97521.09
2019-04-06T02:16:11.013Z,97527.17
2019-04-06T02:18:37.535Z,97531.63
2019-04-06T02:21:04.042Z,97527.75
2019-04-06T02:23:30.509Z,97523.88
2019-04-06T02:25:57.351Z,97530.86
2019-04-06T02:28:23.848Z,97529.55
2019-04-06T02:31:10.083Z,97531.39
2019-04-06T02:33:53.940Z,97521.36
2019-04-06T02:36:42.040Z,97526.22
2019-04-06T02:39:15.013Z,97516.68
2019-04-06T02:41:44.387Z,97514.47
2019-04-06T02:44:10.885Z,97515.32
2019-04-06T02:46:37.753Z,97519.69
2019-04-06T02:49:04.337Z,97522.30
2019-04-06T02:51:31.347Z,97521.84
2019-04-06T02:53:58.151Z,97524.47
2019-04-06T02:56:24.738Z,97523.61
2019-04-06T02:58:51.653Z,97520.95
2019-04-06T03:01:18.288Z,97519.56
2019-04-06T03:03:44.766Z,97519.11
2019-04-06T03:06:11.579Z,97517.76
2019-04-06T03:08:38.312Z,97519.20
2019-04-06T03:11:04.812Z,97524.78
2019-04-06T03:13:31.511Z,97517.76
2019-04-06T03:15:58.476Z,97522.94
2019-04-06T03:18:25.156Z,97522.48
2019-04-06T03:20:51.850Z,97522.94
2019-04-06T03:23:18.431Z,97530.27
2019-04-06T03:25:45.084Z,97532.03
2019-04-06T03:28:11.861Z,97526.77
2019-04-06T03:30:38.452Z,97525.00
2019-04-06T03:33:05.112Z,97524.97
2019-04-06T03:35:31.650Z,97524.52
2019-04-06T03:37:58.248Z,97531.05
2019-04-06T03:40:25.084Z,97530.64
2019-04-06T03:42:51.629Z,97537.56
2019-04-06T03:45:18.180Z,97537.88
2019-04-06T03:47:44.801Z,97540.58
2019-04-06T03:50:13.738Z,97541.30
2019-04-06T03:52:40.667Z,97541.30
2019-04-06T03:55:07.399Z,97542.15
2019-04-06T03:57:33.896Z,97547.83
2019-04-06T04:00:01.039Z,97542.97
2019-04-06T04:02:28.767Z,97546.48
2019-04-06T04:04:55.310Z,97543.82
2019-04-06T04:07:21.840Z,97539.45
2019-04-06T04:09:48.593Z,97543.77
2019-04-06T04:12:15.233Z,97535.04
2019-04-06T04:14:41.945Z,97539.00
2019-04-06T04:17:08.428Z,97532.92
2019-04-06T04:19:35.326Z,97534.31
2019-04-06T04:22:01.884Z,97540.35
2019-04-06T04:24:28.509Z,97537.70
2019-04-06T04:26:55.455Z,97535.62
2019-04-06T04:29:21.944Z,97537.84
2019-04-06T04:31:49.156Z,97537.06
2019-04-06T04:34:16.011Z,97535.84
2019-04-06T04:36:42.525Z,97534.59
2019-04-06T04:39:09.101Z,97532.84
2019-04-06T04:41:35.617Z,97532.98
2019-04-06T04:44:02.332Z,97527.44
2019-04-06T04:46:29.164Z,97535.35
2019-04-06T04:48:56.063Z,97535.80
2019-04-06T04:51:22.755Z,97538.87
2019-04-06T04:53:49.435Z,97544.45
2019-04-06T04:56:16.148Z,97546.16
2019-04-06T04:58:42.780Z,97558.31
2019-04-06T05:01:11.351Z,97558.28
2019-04-06T05:03:37.947Z,97557.33
2019-04-06T05:06:04.479Z,97551.20
2019-04-06T05:08:30.988Z,97560.30
2019-04-06T05:10:57.897Z,97560.80
2019-04-06T05:13:24.914Z,97567.77
2019-04-06T05:16:20.169Z,97570.34
2019-04-06T05:18:46.772Z,97565.57
2019-04-06T05:21:13.423Z,97565.94
2019-04-06T05:23:44.060Z,97561.69
2019-04-06T05:26:10.562Z,97559.63
2019-04-06T05:28:37.098Z,97559.44
2019-04-06T05:31:03.744Z,97563.20
2019-04-06T05:33:30.490Z,97567.69
2019-04-06T05:35:57.086Z,97560.84
2019-04-06T05:38:23.675Z,97573.84
2019-04-06T05:40:50.894Z,97571.59
2019-04-06T05:43:17.826Z,97564.59
2019-04-06T05:45:44.419Z,97565.40
2019-04-06T05:48:11.217Z,97572.70
2019-04-06T05:50:37.766Z,97570.77
2019-04-06T05:53:04.339Z,97570.52
2019-04-06T05:55:31.018Z,97576.52
2019-04-06T05:58:03.751Z,97576.52
2019-04-06T06:00:26.386Z,97584.34
2019-04-06T06:02:53.013Z,97581.73
2019-04-06T06:05:19.708Z,97583.98
2019-04-06T06:07:46.250Z,97579.20
2019-04-06T06:10:14.007Z,97578.76
2019-04-06T06:12:41.391Z,97577.77
2019-04-06T06:15:08.222Z,97578.17
2019-04-06T06:17:36.414Z,97575.44
2019-04-06T06:20:03.375Z,97576.11
2019-04-06T06:22:30.235Z,97571.70
2019-04-06T06:24:57.476Z,97577.73
2019-04-06T06:27:24.375Z,97582.02
2019-04-06T06:29:51.068Z,97585.75
2019-04-06T06:32:17.697Z,97581.64
2019-04-06T06:34:44.452Z,97573.23
2019-04-06T06:37:11.293Z,97578.57
2019-04-06T06:40:36.957Z,97577.28
2019-04-06T06:43:06.516Z,97583.61
2019-04-06T06:45:33.034Z,97584.67
2019-04-06T06:48:02.177Z,97591.47
2019-04-06T06:50:30.139Z,97592.80
2019-04-06T06:52:57.103Z,97602.77
2019-04-06T06:55:23.721Z,97600.95
2019-04-06T06:57:50.337Z,97602.46
2019-04-06T07:00:17.296Z,97603.77
2019-04-06T07:02:45.899Z,97608.80
2019-04-06T07:05:12.812Z,97601.36
2019-04-06T07:07:39.516Z,97600.91
2019-04-06T07:10:06.554Z,97602.45
2019-04-06T07:12:33.169Z,97601.64
2019-04-06T07:14:59.999Z,97596.02
2019-04-06T07:17:26.871Z,97597.55
2019-04-06T07:19:53.887Z,97594.25
2019-04-06T07:22:23.152Z,97600.91
2019-04-06T07:24:50.360Z,97593.41
2019-04-06T07:27:16.980Z,97592.42
2019-04-06T07:29:43.508Z,97594.08
2019-04-06T07:32:10.134Z,97588.95
2019-04-06T07:34:36.812Z,97585.47
2019-04-06T07:37:03.876Z,97588.73
2019-04-06T07:39:30.641Z,97591.64
2019-04-06T07:41:57.277Z,97594.13
2019-04-06T07:44:23.975Z,97597.98
2019-04-06T07:46:50.955Z,97599.42
2019-04-06T07:49:17.526Z,97597.73
2019-04-06T07:51:44.208Z,97602.27
2019-04-06T07:54:10.985Z,97602.72
2019-04-06T07:56:37.952Z,97601.08
2019-04-06T07:59:04.484Z,97592.89
2019-04-06T08:01:31.285Z,97594.23
2019-04-06T08:03:58.122Z,97605.67
2019-04-06T08:06:25.156Z,97603.17
2019-04-06T08:08:52.404Z,97596.82
2019-04-06T08:11:19.303Z,97596.03
2019-04-06T08:13:46.340Z,97600.02
2019-04-06T08:16:13.323Z,97596.17
2019-04-06T08:18:39.940Z,97595.33
2019-04-06T08:21:06.529Z,97592.61
2019-04-06T08:23:33.224Z,97598.33
2019-04-06T08:25:59.841Z,97597.08
2019-04-06T08:28:26.531Z,97599.50
2019-04-06T08:30:57.517Z,97598.01
2019-04-06T08:33:24.090Z,97586.45
2019-04-06T08:35:50.816Z,97582.34
2019-04-06T08:38:17.443Z,97595.98
2019-04-06T08:40:44.672Z,97593.20
2019-04-06T08:43:11.210Z,97588.80
2019-04-06T08:45:37.747Z,97593.61
2019-04-06T08:48:05.630Z,97584.92
2019-04-06T08:50:33.461Z,97591.79
2019-04-06T08:53:00.199Z,97584.56
2019-04-06T08:55:27.087Z,97582.30
2019-04-06T08:57:53.833Z,97583.97
2019-04-06T09:00:20.851Z,97586.64
2019-04-06T09:02:47.434Z,97588.41
2019-04-06T09:05:14.665Z,97586.87
2019-04-06T09:07:41.188Z,97580.56
2019-04-06T09:10:08.579Z,97579.50
2019-04-06T09:12:35.107Z,97572.31
2019-04-06T09:15:01.873Z,97576.13
2019-04-06T09:17:28.510Z,97574.03
2019-04-06T09:19:55.121Z,97577.50
2019-04-06T09:22:21.873Z,97567.44
2019-04-06T09:24:48.385Z,97561.27
2019-04-06T09:27:14.896Z,97554.91
2019-04-06T09:29:41.640Z,97567.60
2019-04-06T09:32:10.926Z,97556.77
2019-04-06T09:34:37.697Z,97552.80
2019-04-06T09:37:04.222Z,97555.95
2019-04-06T09:39:30.785Z,97554.08
2019-04-06T09:41:58.360Z,97556.64
2019-04-06T09:44:45.711Z,97548.34
2019-04-06T09:47:30.391Z,97549.64
2019-04-06T09:50:31.783Z,97545.45
2019-04-06T09:53:23.821Z,97545.80
2019-04-06T09:56:10.079Z,97553.16
2019-04-06T09:58:43.525Z,97547.72
2019-04-06T10:01:38.138Z,97546.20
2019-04-06T10:04:23.100Z,97538.62
2019-04-06T10:07:09.289Z,97533.34
2019-04-06T10:09:55.222Z,97539.95
2019-04-06T10:12:49.297Z,97533.69
2019-04-06T10:15:28.475Z,97533.69
2019-04-06T10:18:15.036Z,97539.58
2019-04-06T10:20:54.789Z,97531.52
2019-04-06T10:23:34.008Z,97526.28
2019-04-06T10:26:38.542Z,97526.56
2019-04-06T10:29:17.396Z,97522.54
2019-04-06T10:31:59.480Z,97514.41
2019-04-06T10:34:45.752Z,97518.54
2019-04-06T10:37:33.242Z,97518.48
2019-04-06T10:40:12.401Z,97520.77
2019-04-06T10:42:54.164Z,97513.29
2019-04-06T10:45:30.875Z,97502.98
2019-04-06T10:48:23.952Z,97497.80
2019-04-06T10:51:08.880Z,97506.53
2019-04-06T10:54:04.130Z,97499.23
2019-04-06T10:56:44.837Z,97494.09
2019-04-06T10:59:31.844Z,97490.62
2019-04-06T11:02:22.520Z,97480.98
2019-04-06T11:04:57.763Z,97481.25
2019-04-06T11:07:30.387Z,97484.69
2019-04-06T11:10:19.165Z,97479.20
2019-04-06T11:12:53.606Z,97475.81
2019-04-06T11:15:40.806Z,97461.42
2019-04-06T11:18:25.488Z,97471.14
2019-04-06T11:21:23.332Z,97470.33
2019-04-06T11:24:04.131Z,97465.48
2019-04-06T11:26:59.020Z,97472.63
2019-04-06T11:29:32.326Z,97465.00
2019-04-06T11:32:16.761Z,97467.67
2019-04-06T11:34:58.968Z,97462.09
2019-04-06T11:37:51.061Z,97460.83
2019-04-06T11:40:34.862Z,97444.71
2019-04-06T11:43:11.008Z,97449.20
2019-04-06T11:45:48.964Z,97442.94
2019-04-06T11:48:35.097Z,97440.50
2019-04-06T11:51:24.026Z,97448.98
2019-04-06T11:54:19.029Z,97445.47
2019-04-06T11:57:03.531Z,97438.77
2019-04-06T11:59:41.554Z,97441.21
2019-04-06T12:02:27.962Z,97447.06
2019-04-06T12:05:09.959Z,97447.56
2019-04-06T12:07:49.945Z,97435.03
2019-04-06T12:10:41.767Z,97432.13
2019-04-06T12:13:36.653Z,97432.72
2019-04-06T12:16:24.262Z,97425.84
2019-04-06T12:19:07.927Z,97420.27
2019-04-06T12:21:44.906Z,97419.55
2019-04-06T12:24:28.607Z,97418.53
2019-04-06T12:27:08.780Z,97415.75
2019-04-06T12:29:52.038Z,97402.50
2019-04-06T12:32:29.395Z,97397.92
2019-04-06T12:35:14.160Z,97395.37
2019-04-06T12:38:00.795Z,97402.59
2019-04-06T12:40:35.073Z,97394.16
2019-04-06T12:43:31.055Z,97401.25
2019-04-06T12:46:20.258Z,97391.16
2019-04-06T12:49:08.602Z,97389.27
2019-04-06T12:51:43.425Z,97390.17
2019-04-06T12:54:32.783Z,97383.23
2019-04-06T12:57:21.872Z,97391.42
2019-04-06T13:00:08.951Z,97385.98
2019-04-06T13:02:55.353Z,97390.00
2019-04-06T13:05:44.537Z,97375.04
2019-04-06T13:08:22.032Z,97376.77
2019-04-06T13:11:01.441Z,97373.20
2019-04-06T13:16:31.737Z,97372.64
2019-04-06T13:19:17.008Z,97366.67
2019-04-06T13:22:01.985Z,97366.61
2019-04-06T13:24:50.855Z,97362.72
2019-04-06T13:27:41.023Z,97359.92
2019-04-06T13:30:20.781Z,97361.08
2019-04-06T13:33:01.418Z,97366.17
2019-04-06T13:35:43.349Z,97362.78
2019-04-06T13:38:22.508Z,97357.69
2019-04-06T13:41:20.575Z,97354.08
2019-04-06T13:43:54.876Z,97353.20
2019-04-06T13:46:37.009Z,97344.73
2019-04-06T13:49:09.938Z,97350.05
2019-04-06T13:52:04.266Z,97346.25
2019-04-06T13:54:48.915Z,97343.95
2019-04-06T13:57:23.616Z,97352.44
2019-04-06T14:00:10.420Z,97346.25
2019-04-06T14:02:42.807Z,97349.19
2019-04-06T14:05:28.055Z,97355.11
2019-04-06T14:08:07.508Z,97353.14
2019-04-06T14:10:52.133Z,97344.41
2019-04-06T14:13:35.201Z,97344.15
2019-04-06T14:16:27.923Z,97341.36
2019-04-06T14:19:15.377Z,97339.61
2019-04-06T14:22:01.411Z,97352.17
2019-04-06T14:24:38.207Z,97351.13
2019-04-06T14:27:27.399Z,97346.43
2019-04-06T14:30:11.283Z,97353.48
2019-04-06T14:32:57.048Z,97354.52
2019-04-06T14:35:41.205Z,97359.83
2019-04-06T14:38:26.833Z,97350.17
2019-04-06T14:41:05.664Z,97351.84
2019-04-06T14:43:48.982Z,97343.45
2019-04-06T14:46:33.848Z,97347.30
2019-04-06T14:49:31.264Z,97351.91
2019-04-06T14:52:04.578Z,97347.08
2019-04-06T14:54:50.972Z,97354.59
2019-04-06T14:57:28.780Z,97353.55
2019-04-06T15:00:11.352Z,97353.67
2019-04-06T15:02:57.406Z,97351.29
2019-04-06T15:05:44.094Z,97351.38
2019-04-06T15:08:21.109Z,97351.75
2019-04-06T15:11:01.066Z,97347.80
2019-04-06T15:13:50.634Z,97349.37
2019-04-06T15:16:23.920Z,97342.59
2019-04-06T15:19:10.490Z,97349.92
2019-04-06T15:22:14.876Z,97347.34
2019-04-06T15:25:01.119Z,97349.92
2019-04-06T15:27:37.366Z,97354.04
2019-04-06T15:30:42.569Z,97344.04
2019-04-06T15:33:35.292Z,97344.61
2019-04-06T15:36:27.929Z,97339.31
2019-04-06T15:39:14.174Z,97341.06
2019-04-06T15:44:46.321Z,97342.09
2019-04-06T15:47:38.676Z,97339.52
2019-04-06T15:50:28.087Z,97341.30
2019-04-06T15:53:17.293Z,97339.88
2019-04-06T15:56:05.700Z,97340.16
2019-04-06T15:58:57.954Z,97333.82
2019-04-06T16:01:33.315Z,97332.27
2019-04-06T16:04:26.434Z,97339.22
2019-04-06T16:07:05.834Z,97338.12
2019-04-06T16:09:58.139Z,97341.25
2019-04-06T16:12:41.590Z,97342.41
2019-04-06T16:15:33.844Z,97344.14
2019-04-06T16:18:07.229Z,97338.38
2019-04-06T16:20:48.934Z,97331.70
2019-04-06T16:23:38.093Z,97333.56
2019-04-06T16:26:20.290Z,97337.92
2019-04-06T16:29:13.186Z,97344.56
2019-04-06T16:31:57.896Z,97335.52
2019-04-06T16:34:36.126Z,97338.20
2019-04-06T16:37:10.190Z,97340.63
2019-04-06T16:39:44.775Z,97334.72
2019-04-06T16:42:31.402Z,97330.00
2019-04-06T16:45:31.407Z,97339.89
2019-04-06T16:48:35.072Z,97333.81
2019-04-06T16:51:09.993Z,97330.90
2019-04-06T16:54:14.609Z,97335.54
2019-04-06T16:56:53.344Z,97328.78
2019-04-06T16:59:30.859Z,97335.54
2019-04-06T17:02:24.382Z,97326.80
2019-04-06T17:05:06.644Z,97330.79
2019-04-06T17:07:51.385Z,97332.96
2019-04-06T17:10:35.819Z,97326.30
2019-04-06T17:13:20.899Z,97323.27
2019-04-06T17:16:05.692Z,97320.22
2019-04-06T17:18:46.243Z,97322.73
2019-04-06T17:21:38.151Z,97320.97
2019-04-06T17:24:12.702Z,97319.25
2019-04-06T17:27:02.122Z,97318.55
2019-04-06T17:29:53.252Z,97318.77
2019-04-06T17:32:38.343Z,97318.47
2019-04-06T17:35:14.080Z,97314.16
2019-04-06T17:38:02.896Z,97317.05
2019-04-06T17:40:43.625Z,97326.97
2019-04-06T17:43:35.166Z,97318.95
2019-04-06T17:46:17.370Z,97320.02
2019-04-06T17:48:55.114Z,97324.22
2019-04-06T17:51:47.518Z,97323.88
2019-04-06T17:54:38.741Z,97322.73
2019-04-06T17:57:14.145Z,97330.58
2019-04-06T17:59:59.546Z,97326.25
2019-04-06T18:02:48.740Z,97325.19
2019-04-06T18:05:30.897Z,97328.77
2019-04-06T18:08:15.703Z,97321.98
2019-04-06T18:11:07.865Z,97323.09
2019-04-06T18:14:03.121Z,97323.28
2019-04-06T18:16:33.193Z,97322.06
2019-04-06T18:19:00.313Z,97329.05
2019-04-06T18:21:27.228Z,97330.53
2019-04-06T18:23:54.296Z,97334.60
2019-04-06T18:26:21.390Z,97334.70
2019-04-06T18:28:48.390Z,97333.26
2019-04-06T18:31:37.264Z,97339.22
2019-04-06T18:34:04.217Z,97335.98
2019-04-06T18:36:48.391Z,97337.78
2019-04-06T18:39:15.209Z,97340.23
2019-04-06T18:41:41.701Z,97338.33
2019-04-06T18:44:09.080Z,97338.89
2019-04-06T18:46:35.637Z,97330.60
2019-04-06T18:49:03.267Z,97330.22
2019-04-06T18:51:29.944Z,97330.06
2019-04-06T18:53:56.613Z,97331.56
2019-04-06T18:56:23.510Z,97335.88
2019-04-06T18:58:51.851Z,97332.77
2019-04-06T19:01:18.618Z,97327.79
2019-04-06T19:03:46.413Z,97339.13
2019-04-06T19:06:12.934Z,97330.34
2019-04-06T19:08:42.076Z,97331.36
2019-04-06T19:11:08.636Z,97326.42
2019-04-06T19:13:35.465Z,97324.32
2019-04-06T19:16:02.055Z,97324.89
2019-04-06T19:18:29.454Z,97323.25
2019-04-06T19:20:56.512Z,97325.99
2019-04-06T19:23:23.066Z,97328.83
2019-04-06T19:25:49.981Z,97324.48
2019-04-06T19:28:16.637Z,97325.96
2019-04-06T19:30:43.184Z,97323.79
2019-04-06T19:33:11.071Z,97323.89
2019-04-06T19:35:38.447Z,97322.34
2019-04-06T19:38:05.024Z,97325.80
2019-04-06T19:40:31.939Z,97327.13
2019-04-06T19:42:58.955Z,97328.97
2019-04-06T19:45:25.925Z,97330.89
2019-04-06T19:48:03.000Z,97328.98
2019-04-06T19:50:29.646Z,97327.40
2019-04-06T19:52:56.337Z,97329.23
2019-04-06T19:55:23.261Z,97334.47
2019-04-06T19:57:49.944Z,97326.44
2019-04-06T20:00:16.856Z,97329.75
2019-04-06T20:02:43.541Z,97323.86
2019-04-06T20:05:10.526Z,97330.70
2019-04-06T20:07:38.081Z,97323.45
2019-04-06T20:10:05.406Z,97329.39
2019-04-06T20:12:32.261Z,97336.81
2019-04-06T20:14:58.847Z,97329.98
2019-04-06T20:17:25.534Z,97335.45
2019-04-06T20:19:52.052Z,97334.50
2019-04-06T20:22:19.157Z,97330.34
2019-04-06T20:24:46.036Z,97330.45
2019-04-06T20:27:12.638Z,97332.98
2019-04-06T20:29:40.791Z,97329.56
2019-04-06T20:32:07.745Z,97326.97
2019-04-06T20:34:34.509Z,97334.19
2019-04-06T20:37:01.853Z,97329.77
2019-04-06T20:39:28.539Z,97324.66
2019-04-06T20:41:55.101Z,97325.98
2019-04-06T20:44:22.235Z,97330.64
2019-04-06T20:46:49.430Z,97337.02
2019-04-06T20:49:16.470Z,97341.02
2019-04-06T20:51:43.361Z,97337.72
2019-04-06T20:54:10.734Z,97333.69
2019-04-06T20:56:37.491Z,97340.28
2019-04-06T20:59:07.579Z,97337.39
2019-04-06T21:01:34.131Z,97336.25
2019-04-06T21:04:02.775Z,97337.35
2019-04-06T21:06:32.270Z,97335.57
2019-04-06T21:09:00.298Z,97342.63
2019-04-06T21:11:26.809Z,97345.09
2019-04-06T21:13:53.893Z,97344.45
2019-04-06T21:16:23.107Z,97347.04
2019-04-06T21:19:01.395Z,97348.66
2019-04-06T21:21:25.898Z,97354.62
2019-04-06T21:23:52.974Z,97353.94
2019-04-06T21:26:21.402Z,97355.09
2019-04-06T21:28:48.755Z,97360.91
2019-04-06T21:31:17.979Z,97357.17
2019-04-06T21:34:14.381Z,97347.39
2019-04-06T21:36:39.147Z,97349.42
2019-04-06T21:39:06.332Z,97352.65
2019-04-06T21:41:33.360Z,97349.42
2019-04-06T21:44:02.340Z,97345.55
2019-04-06T21:46:32.650Z,97349.63
2019-04-06T21:49:05.506Z,97354.72
2019-04-06T21:51:32.633Z,97355.61
2019-04-06T21:54:01.376Z,97359.39
2019-04-06T21:56:28.191Z,97354.98
2019-04-06T21:59:06.621Z,97355.66
2019-04-06T22:01:51.274Z,97363.64
2019-04-06T22:04:25.972Z,97371.70
2019-04-06T22:06:46.538Z,97371.83
2019-04-06T22:09:32.354Z,97363.44
2019-04-06T22:11:59.400Z,97364.27
2019-04-06T22:14:37.570Z,97370.16
2019-04-06T22:17:06.284Z,97372.48
2019-04-06T22:19:33.254Z,97375.11
2019-04-06T22:21:59.853Z,97373.16
2019-04-06T22:24:29.444Z,97377.95
2019-04-06T22:26:58.334Z,97372.22
2019-04-06T22:29:29.823Z,97372.37
2019-04-06T22:31:56.511Z,97370.02
2019-04-06T22:34:34.850Z,97367.63
2019-04-06T22:36:52.661Z,97370.42
2019-04-06T22:39:20.321Z,97367.52
2019-04-06T22:41:52.463Z,97370.63
2019-04-06T22:44:19.222Z,97372.70
2019-04-06T22:46:48.678Z,97379.29
2019-04-06T22:49:16.101Z,97371.16
2019-04-06T22:51:43.455Z,97375.17
2019-04-06T22:54:43.594Z,97374.52
2019-04-06T22:57:10.298Z,97380.17
2019-04-06T22:59:41.545Z,97377.34
2019-04-06T23:02:11.338Z,97370.79
2019-04-06T23:04:59.277Z,97377.23
2019-04-06T23:07:32.596Z,97376.84
2019-04-06T23:09:59.932Z,97380.67
2019-04-06T23:12:29.036Z,97386.61
2019-04-06T23:14:59.158Z,97388.56
2019-04-06T23:17:27.379Z,97383.56
2019-04-06T23:19:54.636Z,97382.00
2019-04-06T23:22:21.779Z,97381.61
2019-04-06T23:24:51.420Z,97380.30
2019-04-06T23:27:35.398Z,97382.58
2019-04-06T23:30:10.568Z,97385.27
2019-04-06T23:32:41.012Z,97384.74
2019-04-06T23:35:08.199Z,97387.77
2019-04-06T23:37:35.476Z,97381.87
2019-04-06T23:40:02.632Z,97389.95
2019-04-06T23:42:32.633Z,97394.80
2019-04-06T23:45:05.026Z,97394.55
2019-04-06T23:47:40.002Z,97390.94
2019-04-06T23:50:09.391Z,97384.80
2019-04-06T23:52:36.479Z,97387.55
2019-04-06T23:55:03.720Z,97389.30
2019-04-06T23:57:33.236Z,97387.47
